sensor_id;sensor_type;location;lat;lon;timestamp;P1;durP1;ratioP1;P2;durP2;ratioP2
70126;SDS011;57491;42.694;23.314;2023-08-01T00:00:06;3.35;;;2.50;;
70126;SDS011;57491;42.694;23.314;2023-08-01T00:02:34;2.65;;;2.35;;
70126;SDS011;57491;42.694;23.314;2023-08-01T00:05:01;2.75;;;2.38;;
70126;SDS011;57491;42.694;23.314;2023-08-01T00:07:28;4.68;;;2.20;;
70126;SDS011;57491;42.694;23.314;2023-08-01T00:09:55;4.75;;;2.47;;
70126;SDS011;57491;42.694;23.314;2023-08-01T00:12:23;2.33;;;2.17;;
70126;SDS011;57491;42.694;23.314;2023-08-01T00:14:52;3.53;;;2.40;;
70126;SDS011;57491;42.694;23.314;2023-08-01T00:17:19;3.60;;;2.33;;
70126;SDS011;57491;42.694;23.314;2023-08-01T00:19:46;3.90;;;2.10;;
70126;SDS011;57491;42.694;23.314;2023-08-01T00:22:13;3.90;;;2.05;;
70126;SDS011;57491;42.694;23.314;2023-08-01T00:24:40;3.92;;;2.40;;
70126;SDS011;57491;42.694;23.314;2023-08-01T00:27:08;3.10;;;2.30;;
70126;SDS011;57491;42.694;23.314;2023-08-01T00:29:36;3.00;;;2.20;;
70126;SDS011;57491;42.694;23.314;2023-08-01T00:34:32;2.63;;;2.33;;
70126;SDS011;57491;42.694;23.314;2023-08-01T00:36:59;3.42;;;2.50;;
70126;SDS011;57491;42.694;23.314;2023-08-01T00:39:26;4.00;;;2.30;;
70126;SDS011;57491;42.694;23.314;2023-08-01T00:41:53;3.88;;;2.28;;
70126;SDS011;57491;42.694;23.314;2023-08-01T00:44:20;4.13;;;2.60;;
70126;SDS011;57491;42.694;23.314;2023-08-01T00:46:47;3.08;;;2.15;;
70126;SDS011;57491;42.694;23.314;2023-08-01T00:49:15;2.42;;;2.20;;
70126;SDS011;57491;42.694;23.314;2023-08-01T00:51:43;3.35;;;2.42;;
70126;SDS011;57491;42.694;23.314;2023-08-01T00:54:10;3.20;;;2.10;;
70126;SDS011;57491;42.694;23.314;2023-08-01T00:56:37;2.78;;;2.58;;
70126;SDS011;57491;42.694;23.314;2023-08-01T00:59:04;3.58;;;2.17;;
70126;SDS011;57491;42.694;23.314;2023-08-01T01:01:31;3.70;;;2.00;;
70126;SDS011;57491;42.694;23.314;2023-08-01T01:03:58;3.00;;;2.17;;
70126;SDS011;57491;42.694;23.314;2023-08-01T01:06:28;3.60;;;2.58;;
70126;SDS011;57491;42.694;23.314;2023-08-01T01:08:59;4.10;;;2.72;;
70126;SDS011;57491;42.694;23.314;2023-08-01T01:11:26;4.72;;;2.35;;
70126;SDS011;57491;42.694;23.314;2023-08-01T01:13:53;2.83;;;2.28;;
70126;SDS011;57491;42.694;23.314;2023-08-01T01:16:20;5.68;;;2.80;;
70126;SDS011;57491;42.694;23.314;2023-08-01T01:18:46;2.85;;;2.20;;
70126;SDS011;57491;42.694;23.314;2023-08-01T01:21:15;4.03;;;2.70;;
70126;SDS011;57491;42.694;23.314;2023-08-01T01:23:42;2.42;;;2.22;;
70126;SDS011;57491;42.694;23.314;2023-08-01T01:26:10;2.42;;;2.15;;
70126;SDS011;57491;42.694;23.314;2023-08-01T01:28:38;3.78;;;1.90;;
70126;SDS011;57491;42.694;23.314;2023-08-01T01:31:08;4.38;;;2.35;;
70126;SDS011;57491;42.694;23.314;2023-08-01T01:33:35;4.15;;;2.63;;
70126;SDS011;57491;42.694;23.314;2023-08-01T01:36:02;2.83;;;2.30;;
70126;SDS011;57491;42.694;23.314;2023-08-01T01:38:31;3.17;;;2.28;;
70126;SDS011;57491;42.694;23.314;2023-08-01T01:40:58;3.40;;;2.30;;
70126;SDS011;57491;42.694;23.314;2023-08-01T01:43:25;2.38;;;2.00;;
70126;SDS011;57491;42.694;23.314;2023-08-01T01:45:52;4.47;;;2.53;;
70126;SDS011;57491;42.694;23.314;2023-08-01T01:48:19;3.70;;;2.75;;
70126;SDS011;57491;42.694;23.314;2023-08-01T01:50:46;3.53;;;2.40;;
70126;SDS011;57491;42.694;23.314;2023-08-01T01:53:13;4.63;;;2.67;;
70126;SDS011;57491;42.694;23.314;2023-08-01T01:55:41;2.65;;;2.30;;
70126;SDS011;57491;42.694;23.314;2023-08-01T01:58:09;3.53;;;2.58;;
70126;SDS011;57491;42.694;23.314;2023-08-01T02:00:36;2.33;;;2.10;;
70126;SDS011;57491;42.694;23.314;2023-08-01T02:03:03;2.90;;;2.23;;
70126;SDS011;57491;42.694;23.314;2023-08-01T02:05:30;2.40;;;2.20;;
70126;SDS011;57491;42.694;23.314;2023-08-01T02:07:57;3.05;;;2.53;;
70126;SDS011;57491;42.694;23.314;2023-08-01T02:10:24;2.53;;;2.33;;
70126;SDS011;57491;42.694;23.314;2023-08-01T02:12:52;6.72;;;2.70;;
70126;SDS011;57491;42.694;23.314;2023-08-01T02:15:19;4.50;;;2.25;;
70126;SDS011;57491;42.694;23.314;2023-08-01T02:17:47;4.93;;;2.55;;
70126;SDS011;57491;42.694;23.314;2023-08-01T02:20:14;3.40;;;2.30;;
70126;SDS011;57491;42.694;23.314;2023-08-01T02:22:41;3.63;;;2.10;;
70126;SDS011;57491;42.694;23.314;2023-08-01T02:25:08;2.70;;;2.40;;
70126;SDS011;57491;42.694;23.314;2023-08-01T02:27:36;4.13;;;2.28;;
70126;SDS011;57491;42.694;23.314;2023-08-01T02:30:05;3.60;;;2.50;;
70126;SDS011;57491;42.694;23.314;2023-08-01T02:32:34;2.55;;;2.13;;
70126;SDS011;57491;42.694;23.314;2023-08-01T02:35:01;3.20;;;2.47;;
70126;SDS011;57491;42.694;23.314;2023-08-01T02:37:28;2.95;;;2.63;;
70126;SDS011;57491;42.694;23.314;2023-08-01T02:39:55;5.75;;;2.78;;
70126;SDS011;57491;42.694;23.314;2023-08-01T02:42:22;3.38;;;2.65;;
70126;SDS011;57491;42.694;23.314;2023-08-01T02:44:49;5.22;;;2.58;;
70126;SDS011;57491;42.694;23.314;2023-08-01T02:47:18;4.88;;;2.85;;
70126;SDS011;57491;42.694;23.314;2023-08-01T02:49:45;3.05;;;2.72;;
70126;SDS011;57491;42.694;23.314;2023-08-01T02:52:12;4.05;;;2.75;;
70126;SDS011;57491;42.694;23.314;2023-08-01T02:54:39;5.40;;;2.72;;
70126;SDS011;57491;42.694;23.314;2023-08-01T02:57:06;3.92;;;2.90;;
70126;SDS011;57491;42.694;23.314;2023-08-01T02:59:33;3.67;;;2.45;;
70126;SDS011;57491;42.694;23.314;2023-08-01T03:02:00;7.10;;;2.80;;
70126;SDS011;57491;42.694;23.314;2023-08-01T03:04:29;2.50;;;1.88;;
70126;SDS011;57491;42.694;23.314;2023-08-01T03:06:56;3.92;;;2.90;;
70126;SDS011;57491;42.694;23.314;2023-08-01T03:09:23;3.80;;;2.60;;
70126;SDS011;57491;42.694;23.314;2023-08-01T03:11:50;3.88;;;2.55;;
70126;SDS011;57491;42.694;23.314;2023-08-01T03:14:17;3.80;;;2.70;;
70126;SDS011;57491;42.694;23.314;2023-08-01T03:16:44;3.23;;;2.47;;
70126;SDS011;57491;42.694;23.314;2023-08-01T03:19:11;4.47;;;2.40;;
70126;SDS011;57491;42.694;23.314;2023-08-01T03:21:40;7.00;;;2.60;;
70126;SDS011;57491;42.694;23.314;2023-08-01T03:24:07;4.50;;;2.45;;
70126;SDS011;57491;42.694;23.314;2023-08-01T03:26:35;3.40;;;2.70;;
70126;SDS011;57491;42.694;23.314;2023-08-01T03:29:03;5.60;;;2.60;;
70126;SDS011;57491;42.694;23.314;2023-08-01T03:31:30;4.55;;;2.70;;
70126;SDS011;57491;42.694;23.314;2023-08-01T03:33:57;4.85;;;2.50;;
70126;SDS011;57491;42.694;23.314;2023-08-01T03:36:24;5.03;;;3.05;;
70126;SDS011;57491;42.694;23.314;2023-08-01T03:38:53;4.85;;;3.10;;
70126;SDS011;57491;42.694;23.314;2023-08-01T03:41:20;5.00;;;2.95;;
70126;SDS011;57491;42.694;23.314;2023-08-01T03:43:47;4.57;;;3.75;;
70126;SDS011;57491;42.694;23.314;2023-08-01T03:46:14;11.00;;;4.43;;
70126;SDS011;57491;42.694;23.314;2023-08-01T03:48:42;4.97;;;4.43;;
70126;SDS011;57491;42.694;23.314;2023-08-01T03:51:09;5.57;;;4.45;;
70126;SDS011;57491;42.694;23.314;2023-08-01T03:53:36;5.50;;;4.37;;
70126;SDS011;57491;42.694;23.314;2023-08-01T03:56:04;6.30;;;4.30;;
70126;SDS011;57491;42.694;23.314;2023-08-01T03:58:31;8.75;;;4.43;;
70126;SDS011;57491;42.694;23.314;2023-08-01T04:00:58;4.53;;;4.10;;
70126;SDS011;57491;42.694;23.314;2023-08-01T04:03:25;6.68;;;4.25;;
70126;SDS011;57491;42.694;23.314;2023-08-01T04:05:52;5.60;;;3.80;;
70126;SDS011;57491;42.694;23.314;2023-08-01T04:08:20;5.28;;;3.65;;
70126;SDS011;57491;42.694;23.314;2023-08-01T04:10:47;4.32;;;3.70;;
70126;SDS011;57491;42.694;23.314;2023-08-01T04:13:17;7.05;;;3.53;;
70126;SDS011;57491;42.694;23.314;2023-08-01T04:15:44;6.40;;;4.25;;
70126;SDS011;57491;42.694;23.314;2023-08-01T04:18:11;4.78;;;3.75;;
70126;SDS011;57491;42.694;23.314;2023-08-01T04:20:38;5.32;;;3.45;;
70126;SDS011;57491;42.694;23.314;2023-08-01T04:23:06;5.60;;;3.53;;
70126;SDS011;57491;42.694;23.314;2023-08-01T04:25:33;4.10;;;3.70;;
70126;SDS011;57491;42.694;23.314;2023-08-01T04:28:00;6.57;;;3.93;;
70126;SDS011;57491;42.694;23.314;2023-08-01T04:30:29;4.82;;;3.88;;
70126;SDS011;57491;42.694;23.314;2023-08-01T04:32:56;3.88;;;3.25;;
70126;SDS011;57491;42.694;23.314;2023-08-01T04:35:23;3.85;;;3.45;;
70126;SDS011;57491;42.694;23.314;2023-08-01T04:37:50;10.55;;;4.70;;
70126;SDS011;57491;42.694;23.314;2023-08-01T04:40:17;13.18;;;4.35;;
70126;SDS011;57491;42.694;23.314;2023-08-01T04:42:44;7.65;;;4.00;;
70126;SDS011;57491;42.694;23.314;2023-08-01T04:45:11;5.82;;;4.18;;
70126;SDS011;57491;42.694;23.314;2023-08-01T04:47:39;11.73;;;4.30;;
70126;SDS011;57491;42.694;23.314;2023-08-01T04:50:06;4.85;;;3.88;;
70126;SDS011;57491;42.694;23.314;2023-08-01T04:52:34;6.13;;;4.60;;
70126;SDS011;57491;42.694;23.314;2023-08-01T04:55:01;7.85;;;5.00;;
70126;SDS011;57491;42.694;23.314;2023-08-01T04:57:28;6.15;;;4.22;;
70126;SDS011;57491;42.694;23.314;2023-08-01T04:59:55;6.93;;;6.30;;
70126;SDS011;57491;42.694;23.314;2023-08-01T05:02:22;5.68;;;4.57;;
70126;SDS011;57491;42.694;23.314;2023-08-01T05:04:51;4.53;;;3.83;;
70126;SDS011;57491;42.694;23.314;2023-08-01T05:07:18;5.93;;;4.35;;
70126;SDS011;57491;42.694;23.314;2023-08-01T05:09:45;6.25;;;4.60;;
70126;SDS011;57491;42.694;23.314;2023-08-01T05:12:12;6.40;;;5.00;;
70126;SDS011;57491;42.694;23.314;2023-08-01T05:14:39;12.52;;;4.80;;
70126;SDS011;57491;42.694;23.314;2023-08-01T05:17:06;6.65;;;4.20;;
70126;SDS011;57491;42.694;23.314;2023-08-01T05:19:33;6.93;;;4.47;;
70126;SDS011;57491;42.694;23.314;2023-08-01T05:22:02;5.90;;;4.15;;
70126;SDS011;57491;42.694;23.314;2023-08-01T05:24:29;5.35;;;3.92;;
70126;SDS011;57491;42.694;23.314;2023-08-01T05:26:56;5.57;;;4.03;;
70126;SDS011;57491;42.694;23.314;2023-08-01T05:29:23;6.38;;;3.50;;
70126;SDS011;57491;42.694;23.314;2023-08-01T05:31:51;8.23;;;4.13;;
70126;SDS011;57491;42.694;23.314;2023-08-01T05:34:18;6.80;;;3.95;;
70126;SDS011;57491;42.694;23.314;2023-08-01T05:36:45;6.90;;;3.80;;
70126;SDS011;57491;42.694;23.314;2023-08-01T05:39:13;6.38;;;4.30;;
70126;SDS011;57491;42.694;23.314;2023-08-01T05:41:41;6.57;;;3.70;;
70126;SDS011;57491;42.694;23.314;2023-08-01T05:44:08;8.40;;;4.13;;
70126;SDS011;57491;42.694;23.314;2023-08-01T05:46:35;5.70;;;3.53;;
70126;SDS011;57491;42.694;23.314;2023-08-01T05:49:02;5.22;;;3.53;;
70126;SDS011;57491;42.694;23.314;2023-08-01T05:51:29;3.95;;;3.33;;
70126;SDS011;57491;42.694;23.314;2023-08-01T05:53:56;9.25;;;5.03;;
70126;SDS011;57491;42.694;23.314;2023-08-01T05:56:25;7.20;;;3.03;;
70126;SDS011;57491;42.694;23.314;2023-08-01T05:58:52;6.60;;;3.40;;
70126;SDS011;57491;42.694;23.314;2023-08-01T06:01:19;6.03;;;3.63;;
70126;SDS011;57491;42.694;23.314;2023-08-01T06:03:46;4.65;;;3.25;;
70126;SDS011;57491;42.694;23.314;2023-08-01T06:06:13;7.25;;;3.30;;
70126;SDS011;57491;42.694;23.314;2023-08-01T06:08:40;5.97;;;3.38;;
70126;SDS011;57491;42.694;23.314;2023-08-01T06:11:07;8.77;;;3.22;;
70126;SDS011;57491;42.694;23.314;2023-08-01T06:13:36;4.53;;;3.13;;
70126;SDS011;57491;42.694;23.314;2023-08-01T06:16:03;7.68;;;3.42;;
70126;SDS011;57491;42.694;23.314;2023-08-01T06:18:30;6.10;;;3.50;;
70126;SDS011;57491;42.694;23.314;2023-08-01T06:20:57;5.32;;;3.53;;
70126;SDS011;57491;42.694;23.314;2023-08-01T06:23:24;7.90;;;3.80;;
70126;SDS011;57491;42.694;23.314;2023-08-01T06:25:51;6.93;;;4.05;;
70126;SDS011;57491;42.694;23.314;2023-08-01T06:28:19;5.50;;;3.33;;
70126;SDS011;57491;42.694;23.314;2023-08-01T06:30:47;4.43;;;3.30;;
70126;SDS011;57491;42.694;23.314;2023-08-01T06:33:14;8.25;;;3.72;;
70126;SDS011;57491;42.694;23.314;2023-08-01T06:38:08;8.35;;;4.80;;
70126;SDS011;57491;42.694;23.314;2023-08-01T06:40:35;10.18;;;5.50;;
70126;SDS011;57491;42.694;23.314;2023-08-01T06:43:02;7.72;;;4.32;;
70126;SDS011;57491;42.694;23.314;2023-08-01T06:45:29;9.23;;;4.53;;
70126;SDS011;57491;42.694;23.314;2023-08-01T06:47:58;8.75;;;4.10;;
70126;SDS011;57491;42.694;23.314;2023-08-01T06:50:25;9.07;;;3.33;;
70126;SDS011;57491;42.694;23.314;2023-08-01T06:52:53;5.28;;;3.85;;
70126;SDS011;57491;42.694;23.314;2023-08-01T06:55:20;8.80;;;5.47;;
70126;SDS011;57491;42.694;23.314;2023-08-01T06:57:47;7.10;;;4.20;;
70126;SDS011;57491;42.694;23.314;2023-08-01T07:00:14;8.43;;;3.95;;
70126;SDS011;57491;42.694;23.314;2023-08-01T07:05:09;8.75;;;3.95;;
70126;SDS011;57491;42.694;23.314;2023-08-01T07:07:37;9.45;;;3.67;;
70126;SDS011;57491;42.694;23.314;2023-08-01T07:10:04;7.32;;;3.67;;
70126;SDS011;57491;42.694;23.314;2023-08-01T07:12:32;11.90;;;4.95;;
70126;SDS011;57491;42.694;23.314;2023-08-01T07:14:59;8.98;;;5.35;;
70126;SDS011;57491;42.694;23.314;2023-08-01T07:17:26;10.45;;;4.32;;
70126;SDS011;57491;42.694;23.314;2023-08-01T07:19:53;9.60;;;4.32;;
70126;SDS011;57491;42.694;23.314;2023-08-01T07:22:22;6.88;;;4.22;;
70126;SDS011;57491;42.694;23.314;2023-08-01T07:24:52;8.13;;;3.63;;
70126;SDS011;57491;42.694;23.314;2023-08-01T07:27:19;8.38;;;4.57;;
70126;SDS011;57491;42.694;23.314;2023-08-01T07:29:47;5.93;;;4.15;;
70126;SDS011;57491;42.694;23.314;2023-08-01T07:32:14;10.15;;;4.10;;
70126;SDS011;57491;42.694;23.314;2023-08-01T07:34:41;10.10;;;5.60;;
70126;SDS011;57491;42.694;23.314;2023-08-01T07:37:08;4.70;;;4.07;;
70126;SDS011;57491;42.694;23.314;2023-08-01T07:39:37;8.35;;;4.88;;
70126;SDS011;57491;42.694;23.314;2023-08-01T07:42:04;5.55;;;3.70;;
70126;SDS011;57491;42.694;23.314;2023-08-01T07:44:31;7.00;;;5.15;;
70126;SDS011;57491;42.694;23.314;2023-08-01T07:46:58;8.00;;;3.90;;
70126;SDS011;57491;42.694;23.314;2023-08-01T07:49:26;5.03;;;2.80;;
70126;SDS011;57491;42.694;23.314;2023-08-01T07:54:20;5.03;;;3.20;;
70126;SDS011;57491;42.694;23.314;2023-08-01T07:56:48;6.28;;;3.13;;
70126;SDS011;57491;42.694;23.314;2023-08-01T07:59:15;7.75;;;4.50;;
70126;SDS011;57491;42.694;23.314;2023-08-01T08:01:42;5.22;;;3.08;;
70126;SDS011;57491;42.694;23.314;2023-08-01T08:04:09;6.15;;;3.60;;
70126;SDS011;57491;42.694;23.314;2023-08-01T08:06:36;7.43;;;4.38;;
70126;SDS011;57491;42.694;23.314;2023-08-01T08:11:30;6.55;;;3.97;;
70126;SDS011;57491;42.694;23.314;2023-08-01T08:14:00;7.60;;;4.25;;
70126;SDS011;57491;42.694;23.314;2023-08-01T08:16:27;5.82;;;3.20;;
70126;SDS011;57491;42.694;23.314;2023-08-01T08:18:54;8.82;;;4.50;;
70126;SDS011;57491;42.694;23.314;2023-08-01T08:23:48;7.20;;;4.55;;
70126;SDS011;57491;42.694;23.314;2023-08-01T08:26:16;6.10;;;3.75;;
70126;SDS011;57491;42.694;23.314;2023-08-01T08:28:43;4.22;;;3.47;;
70126;SDS011;57491;42.694;23.314;2023-08-01T08:31:12;8.05;;;4.00;;
70126;SDS011;57491;42.694;23.314;2023-08-01T08:33:39;8.38;;;3.60;;
70126;SDS011;57491;42.694;23.314;2023-08-01T08:41:03;5.18;;;3.55;;
70126;SDS011;57491;42.694;23.314;2023-08-01T08:43:34;6.43;;;4.20;;
70126;SDS011;57491;42.694;23.314;2023-08-01T08:46:02;5.68;;;3.90;;
70126;SDS011;57491;42.694;23.314;2023-08-01T08:48:32;5.38;;;3.78;;
70126;SDS011;57491;42.694;23.314;2023-08-01T08:50:59;6.90;;;3.97;;
70126;SDS011;57491;42.694;23.314;2023-08-01T08:53:29;6.32;;;3.97;;
70126;SDS011;57491;42.694;23.314;2023-08-01T08:55:58;7.78;;;4.97;;
70126;SDS011;57491;42.694;23.314;2023-08-01T08:58:26;4.93;;;3.50;;
70126;SDS011;57491;42.694;23.314;2023-08-01T09:00:55;4.03;;;3.40;;
70126;SDS011;57491;42.694;23.314;2023-08-01T09:03:23;5.93;;;3.65;;
70126;SDS011;57491;42.694;23.314;2023-08-01T09:05:53;6.25;;;4.35;;
70126;SDS011;57491;42.694;23.314;2023-08-01T09:08:27;5.03;;;3.58;;
70126;SDS011;57491;42.694;23.314;2023-08-01T09:10:56;8.43;;;4.78;;
70126;SDS011;57491;42.694;23.314;2023-08-01T09:13:24;6.55;;;3.95;;
70126;SDS011;57491;42.694;23.314;2023-08-01T09:18:18;4.95;;;3.58;;
70126;SDS011;57491;42.694;23.314;2023-08-01T09:23:14;5.95;;;4.25;;
70126;SDS011;57491;42.694;23.314;2023-08-01T09:25:42;6.03;;;4.40;;
70126;SDS011;57491;42.694;23.314;2023-08-01T09:28:16;8.70;;;5.38;;
70126;SDS011;57491;42.694;23.314;2023-08-01T09:30:45;5.10;;;4.32;;
70126;SDS011;57491;42.694;23.314;2023-08-01T09:33:14;5.65;;;4.35;;
70126;SDS011;57491;42.694;23.314;2023-08-01T09:35:41;7.75;;;4.80;;
70126;SDS011;57491;42.694;23.314;2023-08-01T09:38:10;8.45;;;4.55;;
70126;SDS011;57491;42.694;23.314;2023-08-01T09:40:39;6.22;;;4.43;;
70126;SDS011;57491;42.694;23.314;2023-08-01T09:43:07;6.35;;;4.15;;
70126;SDS011;57491;42.694;23.314;2023-08-01T09:45:35;5.97;;;5.03;;
70126;SDS011;57491;42.694;23.314;2023-08-01T09:48:02;5.80;;;4.78;;
70126;SDS011;57491;42.694;23.314;2023-08-01T09:50:30;7.38;;;4.68;;
70126;SDS011;57491;42.694;23.314;2023-08-01T09:53:06;7.05;;;4.28;;
70126;SDS011;57491;42.694;23.314;2023-08-01T09:55:34;7.73;;;4.63;;
70126;SDS011;57491;42.694;23.314;2023-08-01T09:58:02;4.93;;;4.53;;
70126;SDS011;57491;42.694;23.314;2023-08-01T10:00:31;11.02;;;5.22;;
70126;SDS011;57491;42.694;23.314;2023-08-01T10:02:59;12.93;;;6.20;;
70126;SDS011;57491;42.694;23.314;2023-08-01T10:05:28;13.30;;;4.55;;
70126;SDS011;57491;42.694;23.314;2023-08-01T10:07:57;6.00;;;4.50;;
70126;SDS011;57491;42.694;23.314;2023-08-01T10:10:25;7.47;;;5.10;;
70126;SDS011;57491;42.694;23.314;2023-08-01T10:12:53;7.38;;;4.22;;
70126;SDS011;57491;42.694;23.314;2023-08-01T10:15:22;5.93;;;4.20;;
70126;SDS011;57491;42.694;23.314;2023-08-01T10:17:51;5.07;;;4.57;;
70126;SDS011;57491;42.694;23.314;2023-08-01T10:20:18;4.55;;;4.10;;
70126;SDS011;57491;42.694;23.314;2023-08-01T10:22:48;8.23;;;4.65;;
70126;SDS011;57491;42.694;23.314;2023-08-01T10:25:16;5.00;;;4.40;;
70126;SDS011;57491;42.694;23.314;2023-08-01T10:27:44;4.72;;;4.32;;
70126;SDS011;57491;42.694;23.314;2023-08-01T10:30:11;5.78;;;4.88;;
70126;SDS011;57491;42.694;23.314;2023-08-01T10:32:40;6.35;;;5.22;;
70126;SDS011;57491;42.694;23.314;2023-08-01T10:35:07;9.25;;;6.68;;
70126;SDS011;57491;42.694;23.314;2023-08-01T10:37:41;6.72;;;4.53;;
70126;SDS011;57491;42.694;23.314;2023-08-01T10:40:09;4.90;;;4.20;;
70126;SDS011;57491;42.694;23.314;2023-08-01T10:42:39;4.82;;;4.32;;
70126;SDS011;57491;42.694;23.314;2023-08-01T10:45:07;7.15;;;4.75;;
70126;SDS011;57491;42.694;23.314;2023-08-01T10:47:48;4.70;;;4.20;;
70126;SDS011;57491;42.694;23.314;2023-08-01T10:50:15;4.03;;;3.72;;
70126;SDS011;57491;42.694;23.314;2023-08-01T10:52:43;6.90;;;5.03;;
70126;SDS011;57491;42.694;23.314;2023-08-01T10:55:11;8.13;;;4.78;;
70126;SDS011;57491;42.694;23.314;2023-08-01T10:57:40;5.45;;;4.50;;
70126;SDS011;57491;42.694;23.314;2023-08-01T11:00:15;5.43;;;4.20;;
70126;SDS011;57491;42.694;23.314;2023-08-01T11:02:50;4.30;;;3.90;;
70126;SDS011;57491;42.694;23.314;2023-08-01T11:05:17;4.47;;;4.07;;
70126;SDS011;57491;42.694;23.314;2023-08-01T11:07:52;4.82;;;4.20;;
70126;SDS011;57491;42.694;23.314;2023-08-01T11:10:21;5.10;;;4.40;;
70126;SDS011;57491;42.694;23.314;2023-08-01T11:12:49;6.78;;;4.10;;
70126;SDS011;57491;42.694;23.314;2023-08-01T11:15:16;7.20;;;4.43;;
70126;SDS011;57491;42.694;23.314;2023-08-01T11:17:46;4.35;;;3.85;;
70126;SDS011;57491;42.694;23.314;2023-08-01T11:20:16;7.28;;;4.28;;
70126;SDS011;57491;42.694;23.314;2023-08-01T11:22:52;6.10;;;4.45;;
70126;SDS011;57491;42.694;23.314;2023-08-01T11:25:31;7.15;;;4.20;;
70126;SDS011;57491;42.694;23.314;2023-08-01T11:28:01;5.38;;;4.32;;
70126;SDS011;57491;42.694;23.314;2023-08-01T11:30:30;6.28;;;4.43;;
70126;SDS011;57491;42.694;23.314;2023-08-01T11:32:59;5.30;;;4.80;;
70126;SDS011;57491;42.694;23.314;2023-08-01T11:35:27;5.22;;;4.13;;
70126;SDS011;57491;42.694;23.314;2023-08-01T11:37:54;5.45;;;4.45;;
70126;SDS011;57491;42.694;23.314;2023-08-01T11:40:23;6.18;;;4.47;;
70126;SDS011;57491;42.694;23.314;2023-08-01T11:42:51;4.40;;;4.00;;
70126;SDS011;57491;42.694;23.314;2023-08-01T11:45:23;5.80;;;4.60;;
70126;SDS011;57491;42.694;23.314;2023-08-01T11:47:50;5.25;;;4.32;;
70126;SDS011;57491;42.694;23.314;2023-08-01T11:50:20;6.43;;;3.88;;
70126;SDS011;57491;42.694;23.314;2023-08-01T11:52:49;5.22;;;4.43;;
70126;SDS011;57491;42.694;23.314;2023-08-01T11:55:21;4.07;;;3.67;;
70126;SDS011;57491;42.694;23.314;2023-08-01T11:57:55;4.97;;;4.47;;
70126;SDS011;57491;42.694;23.314;2023-08-01T12:00:24;4.43;;;4.03;;
70126;SDS011;57491;42.694;23.314;2023-08-01T12:03:02;7.18;;;4.25;;
70126;SDS011;57491;42.694;23.314;2023-08-01T12:05:30;6.38;;;4.05;;
70126;SDS011;57491;42.694;23.314;2023-08-01T12:08:08;5.55;;;4.18;;
70126;SDS011;57491;42.694;23.314;2023-08-01T12:10:37;6.15;;;4.15;;
70126;SDS011;57491;42.694;23.314;2023-08-01T12:13:05;4.10;;;3.75;;
70126;SDS011;57491;42.694;23.314;2023-08-01T12:15:32;4.22;;;3.83;;
70126;SDS011;57491;42.694;23.314;2023-08-01T12:17:59;8.25;;;5.45;;
70126;SDS011;57491;42.694;23.314;2023-08-01T12:20:26;7.10;;;4.63;;
70126;SDS011;57491;42.694;23.314;2023-08-01T12:22:53;5.07;;;4.57;;
70126;SDS011;57491;42.694;23.314;2023-08-01T12:25:21;4.85;;;3.90;;
70126;SDS011;57491;42.694;23.314;2023-08-01T12:27:48;4.95;;;4.50;;
70126;SDS011;57491;42.694;23.314;2023-08-01T12:30:16;7.45;;;4.47;;
70126;SDS011;57491;42.694;23.314;2023-08-01T12:32:43;8.63;;;4.55;;
70126;SDS011;57491;42.694;23.314;2023-08-01T12:35:10;4.03;;;3.60;;
70126;SDS011;57491;42.694;23.314;2023-08-01T12:37:37;6.43;;;3.92;;
70126;SDS011;57491;42.694;23.314;2023-08-01T12:40:05;5.18;;;4.22;;
70126;SDS011;57491;42.694;23.314;2023-08-01T12:42:34;4.90;;;4.05;;
70126;SDS011;57491;42.694;23.314;2023-08-01T12:45:02;3.72;;;3.10;;
70126;SDS011;57491;42.694;23.314;2023-08-01T12:47:29;5.22;;;3.35;;
70126;SDS011;57491;42.694;23.314;2023-08-01T12:52:23;3.85;;;2.83;;
70126;SDS011;57491;42.694;23.314;2023-08-01T12:54:51;4.70;;;4.20;;
70126;SDS011;57491;42.694;23.314;2023-08-01T13:02:14;4.53;;;3.20;;
70126;SDS011;57491;42.694;23.314;2023-08-01T13:04:41;4.82;;;3.50;;
70126;SDS011;57491;42.694;23.314;2023-08-01T13:07:08;5.47;;;3.38;;
70126;SDS011;57491;42.694;23.314;2023-08-01T13:09:35;4.78;;;3.00;;
70126;SDS011;57491;42.694;23.314;2023-08-01T13:14:31;3.85;;;3.05;;
70126;SDS011;57491;42.694;23.314;2023-08-01T13:16:59;4.05;;;2.67;;
70126;SDS011;57491;42.694;23.314;2023-08-01T13:19:26;5.03;;;3.28;;
70126;SDS011;57491;42.694;23.314;2023-08-01T13:26:47;4.57;;;2.95;;
70126;SDS011;57491;42.694;23.314;2023-08-01T13:29:14;6.15;;;3.03;;
70126;SDS011;57491;42.694;23.314;2023-08-01T13:31:42;3.97;;;3.25;;
70126;SDS011;57491;42.694;23.314;2023-08-01T13:34:10;3.40;;;2.58;;
70126;SDS011;57491;42.694;23.314;2023-08-01T13:36:37;4.07;;;2.65;;
70126;SDS011;57491;42.694;23.314;2023-08-01T13:41:31;3.72;;;2.67;;
70126;SDS011;57491;42.694;23.314;2023-08-01T13:43:58;3.10;;;2.60;;
70126;SDS011;57491;42.694;23.314;2023-08-01T13:46:25;2.47;;;2.28;;
70126;SDS011;57491;42.694;23.314;2023-08-01T13:53:48;3.78;;;2.75;;
70126;SDS011;57491;42.694;23.314;2023-08-01T13:56:15;3.47;;;3.10;;
70126;SDS011;57491;42.694;23.314;2023-08-01T14:03:36;3.38;;;3.00;;
70126;SDS011;57491;42.694;23.314;2023-08-01T14:06:05;4.22;;;2.83;;
70126;SDS011;57491;42.694;23.314;2023-08-01T14:08:34;5.78;;;2.85;;
70126;SDS011;57491;42.694;23.314;2023-08-01T14:11:02;3.28;;;2.97;;
70126;SDS011;57491;42.694;23.314;2023-08-01T14:13:30;3.08;;;2.70;;
70126;SDS011;57491;42.694;23.314;2023-08-01T14:15:57;4.10;;;3.10;;
70126;SDS011;57491;42.694;23.314;2023-08-01T14:18:24;3.15;;;2.72;;
70126;SDS011;57491;42.694;23.314;2023-08-01T14:23:18;4.30;;;2.80;;
70126;SDS011;57491;42.694;23.314;2023-08-01T14:28:14;2.80;;;2.55;;
70126;SDS011;57491;42.694;23.314;2023-08-01T14:30:41;3.53;;;3.08;;
70126;SDS011;57491;42.694;23.314;2023-08-01T14:33:08;4.22;;;3.00;;
70126;SDS011;57491;42.694;23.314;2023-08-01T14:38:02;3.83;;;3.45;;
70126;SDS011;57491;42.694;23.314;2023-08-01T14:40:30;6.57;;;3.03;;
70126;SDS011;57491;42.694;23.314;2023-08-01T14:45:25;3.78;;;3.13;;
70126;SDS011;57491;42.694;23.314;2023-08-01T14:47:52;3.50;;;2.88;;
70126;SDS011;57491;42.694;23.314;2023-08-01T14:52:47;3.88;;;3.10;;
70126;SDS011;57491;42.694;23.314;2023-08-01T14:55:14;5.72;;;4.10;;
70126;SDS011;57491;42.694;23.314;2023-08-01T14:57:41;3.90;;;3.50;;
70126;SDS011;57491;42.694;23.314;2023-08-01T15:02:37;4.90;;;2.92;;
70126;SDS011;57491;42.694;23.314;2023-08-01T15:07:31;5.30;;;4.68;;
70126;SDS011;57491;42.694;23.314;2023-08-01T15:09:58;3.60;;;3.30;;
70126;SDS011;57491;42.694;23.314;2023-08-01T15:12:25;4.10;;;3.33;;
70126;SDS011;57491;42.694;23.314;2023-08-01T15:14:52;3.65;;;2.95;;
70126;SDS011;57491;42.694;23.314;2023-08-01T15:19:48;4.22;;;3.53;;
70126;SDS011;57491;42.694;23.314;2023-08-01T15:22:16;5.57;;;3.20;;
70126;SDS011;57491;42.694;23.314;2023-08-01T15:24:43;5.57;;;3.58;;
70126;SDS011;57491;42.694;23.314;2023-08-01T15:29:38;3.70;;;3.30;;
70126;SDS011;57491;42.694;23.314;2023-08-01T15:32:06;4.22;;;3.83;;
70126;SDS011;57491;42.694;23.314;2023-08-01T15:34:35;3.53;;;3.22;;
70126;SDS011;57491;42.694;23.314;2023-08-01T15:37:02;4.80;;;3.25;;
70126;SDS011;57491;42.694;23.314;2023-08-01T15:39:29;4.07;;;3.28;;
70126;SDS011;57491;42.694;23.314;2023-08-01T15:54:12;3.45;;;3.15;;
70126;SDS011;57491;42.694;23.314;2023-08-01T15:56:39;5.97;;;3.03;;
70126;SDS011;57491;42.694;23.314;2023-08-01T15:59:08;4.55;;;3.60;;
70126;SDS011;57491;42.694;23.314;2023-08-01T16:04:02;4.70;;;2.88;;